Portada
METAR-TAF:

METAR-TAF

Aeroports :

Qamixli, Síria

latitud: 37-03N, longitud: 041-13E, altitud: 455 m

Observació

L'informe es va fer fa 4 hores i 7 minuts, a les 21:00 UTC
Vent 11 kt del Nord/Nord-Oest
Temperatura 7°C
Humitat 70%
Pressió 1012 hPa
Visibilitat: 3000 m
Núvols disperses a una alçada de 2600 ft
Cel ennuvolat a una alçada de 10000 ft
calitja

METAR: OSKL 292100Z 34011KT 3000 HZ SCT026 BKN100 07/02 Q1012

Hora: 03:07 (01:07 UTC)


TAF: manca

Observacions i pronòstics meteorològics de més de 4000 aeroports (METAR i TAF).

Les estacions disponibles són els punts grocs i vermells al mapa.

Posi el ratolí al punt desitjat per veure el nom de l'estació.

Feu clic per veure les observacions i els pronòstics meteorològics.

Per canviar el mapa: feu clic els botons verds amb una creu de color negre per apropar; al botó verd amb un guió per allunyar la imatge; o en les fletxes verdes per a mapes adjacents.


METAR-TAF: